Kurunegala, Sri Lanka

12:23 PM IST on September 17, 2014 (GMT +0530)
Bandaranaike International | Change Station
CLOSE
Current Station
Airport
Location: Katunayake,
Elevation: 26 ft
Nearby Weather Stations

Elev 26 ft 7.18 °N, 79.88 °E | Updated 43 minutes ago

Mostly Cloudy
Mostly Cloudy
86 °F
Feels Like 97 °F
N
12
Wind Variable Wind from SW

Today
High -- | Low -- °F
--% Chance of Precip.
Yesterday
High -- | Low -- °F
Precip. -- in
5:58 AM 6:07 PM
Last Quarter, 38% visible
Pressure 29.80 in
Visibility 6.2 miles
Clouds Mostly Cloudy 1600 ft
Heat Index 97 °F
Dew Point 77 °F
Humidity 74%
Rainfall 0.00 in
Snow Depth Not available.
UV 8 out of 12
Pollen Not available.
Air Quality Not available.
Flu Activity Not available.
METAR VCBI 170610Z 22010KT 9999 BKN016 30/25 Q1009 NOSIG

More Conditions Fewer Conditions

Pressure 29.80 in
Visibility 6.2 miles
Clouds Mostly Cloudy 1600 ft
Heat Index 97 °F
Dew Point 77 °F
Humidity 74%
Rainfall 0.00 in
Snow Depth Not available.
UV 8 out of 12
Pollen Not available.
Air Quality Not available.
Flu Activity Not available.
METAR VCBI 170610Z 22010KT 9999 BKN016 30/25 Q1009 NOSIG

More Conditions Fewer Conditions

10-Day Weather Forecast

Almanac

Astronomy

Sep. 17, 2014 Rise Set
Actual Time 5:58 AM IST 6:07 PM IST
Civil Twilight 5:37 AM IST 6:28 PM IST
Nautical Twilight 5:13 AM IST 6:52 PM IST
Astronomical Twilight 4:49 AM IST 7:16 PM IST
Moon No Moon Rise 1:07 PM IST
Length of Visible Light 12h 50m
Length of Day
12h 08m
Tomorrow will be 0m 25s shorter.
Last Quarter, 38% of the Moon is Illuminated
Today
Last Quarter
Sep 24
New
Oct 1
First Quarter
Oct 8
Full
Oct 15
Last Quarter

Yesterday's Extremes

Country Highs Country Lows

Community

WunderPhotos

Upload Photos

1,753,970 photos uploaded!

Nearby

Snow Depth

Not available.

Earthquake Activity

City Distance Mag. Time & Date
No recent earthquake activity has been reported nearby.
Minimum magnitude displayed is 2.5.

Coastal Water Temperatures

Place Temperature
No Stations Reporting

Nearby Weather Stations